Sherman, South Dakota
Current Conditions -  °F | °C
As of 9:56 PM on Wednesday 26 Nov 2014 (Local Time) from KFSD Reporting Station
Scattered Clouds Scattered Clouds  
Wind Chill: -3°   Ceiling: Unl
Heat Index:   Visibility: 10mi
Dew Point:   Wind: 7mph
Humidity: 70%   Direction: 360°N
Pressure: 30.43"   Gusts: NA
Location:  43.7606°N, 96.5516°W
Report Text: KFSD 270356Z 36006KT 10SM SCT065 M13/M18 A3043 RMK AO2 SLP335 T11331178
Loading
Personal Weather Stations






























Interactive Weather Map New forecast layout! Learn more

10-Day Weather Forecast

Advertisements
Track Severe Weather on mobile